sensor_id;sensor_type;location;lat;lon;timestamp;P1;durP1;ratioP1;P2;durP2;ratioP2
53313;SDS011;39202;51.468;7.146;2023-04-24T00:04:18;0.47;;;0.47;;
53313;SDS011;39202;51.468;7.146;2023-04-24T00:09:21;0.45;;;0.45;;
53313;SDS011;39202;51.468;7.146;2023-04-24T00:14:24;0.50;;;0.50;;
53313;SDS011;39202;51.468;7.146;2023-04-24T00:19:25;0.50;;;0.50;;
53313;SDS011;39202;51.468;7.146;2023-04-24T00:24:29;0.40;;;0.40;;
53313;SDS011;39202;51.468;7.146;2023-04-24T00:29:30;0.40;;;0.40;;
53313;SDS011;39202;51.468;7.146;2023-04-24T00:34:32;0.40;;;0.40;;
53313;SDS011;39202;51.468;7.146;2023-04-24T00:39:35;0.50;;;0.50;;
53313;SDS011;39202;51.468;7.146;2023-04-24T00:44:37;0.50;;;0.50;;
53313;SDS011;39202;51.468;7.146;2023-04-24T00:49:39;0.40;;;0.40;;
53313;SDS011;39202;51.468;7.146;2023-04-24T00:54:42;0.35;;;0.35;;
53313;SDS011;39202;51.468;7.146;2023-04-24T00:59:44;0.60;;;0.60;;
53313;SDS011;39202;51.468;7.146;2023-04-24T01:04:46;0.40;;;0.40;;
53313;SDS011;39202;51.468;7.146;2023-04-24T01:09:51;0.40;;;0.40;;
53313;SDS011;39202;51.468;7.146;2023-04-24T01:14:52;0.50;;;0.50;;
53313;SDS011;39202;51.468;7.146;2023-04-24T01:19:54;0.50;;;0.50;;
53313;SDS011;39202;51.468;7.146;2023-04-24T01:24:58;0.40;;;0.40;;
53313;SDS011;39202;51.468;7.146;2023-04-24T01:30:00;0.32;;;0.32;;
53313;SDS011;39202;51.468;7.146;2023-04-24T01:35:02;0.50;;;0.50;;
53313;SDS011;39202;51.468;7.146;2023-04-24T01:40:07;0.50;;;0.50;;
53313;SDS011;39202;51.468;7.146;2023-04-24T01:45:10;0.40;;;0.40;;
53313;SDS011;39202;51.468;7.146;2023-04-24T01:50:13;0.40;;;0.40;;
53313;SDS011;39202;51.468;7.146;2023-04-24T01:55:16;0.50;;;0.50;;
53313;SDS011;39202;51.468;7.146;2023-04-24T02:00:17;0.40;;;0.40;;
53313;SDS011;39202;51.468;7.146;2023-04-24T02:05:19;0.30;;;0.30;;
53313;SDS011;39202;51.468;7.146;2023-04-24T02:10:23;0.40;;;0.40;;
53313;SDS011;39202;51.468;7.146;2023-04-24T02:15:25;0.45;;;0.45;;
53313;SDS011;39202;51.468;7.146;2023-04-24T02:20:27;0.50;;;0.50;;
53313;SDS011;39202;51.468;7.146;2023-04-24T02:25:30;0.50;;;0.50;;
53313;SDS011;39202;51.468;7.146;2023-04-24T02:30:31;0.38;;;0.38;;
53313;SDS011;39202;51.468;7.146;2023-04-24T02:35:33;0.40;;;0.40;;
53313;SDS011;39202;51.468;7.146;2023-04-24T02:40:36;0.50;;;0.50;;
53313;SDS011;39202;51.468;7.146;2023-04-24T02:45:38;0.50;;;0.50;;
53313;SDS011;39202;51.468;7.146;2023-04-24T02:50:39;0.40;;;0.40;;
53313;SDS011;39202;51.468;7.146;2023-04-24T02:55:43;0.40;;;0.40;;
53313;SDS011;39202;51.468;7.146;2023-04-24T03:00:45;0.40;;;0.40;;
53313;SDS011;39202;51.468;7.146;2023-04-24T03:05:47;0.40;;;0.40;;
53313;SDS011;39202;51.468;7.146;2023-04-24T03:10:50;0.40;;;0.40;;
53313;SDS011;39202;51.468;7.146;2023-04-24T03:15:52;0.40;;;0.40;;
53313;SDS011;39202;51.468;7.146;2023-04-24T03:20:54;0.40;;;0.40;;
53313;SDS011;39202;51.468;7.146;2023-04-24T03:25:57;0.40;;;0.40;;
53313;SDS011;39202;51.468;7.146;2023-04-24T03:30:58;0.50;;;0.50;;
53313;SDS011;39202;51.468;7.146;2023-04-24T03:36:00;0.35;;;0.35;;
53313;SDS011;39202;51.468;7.146;2023-04-24T03:41:03;0.40;;;0.40;;
53313;SDS011;39202;51.468;7.146;2023-04-24T03:46:05;0.47;;;0.47;;
53313;SDS011;39202;51.468;7.146;2023-04-24T03:51:09;0.50;;;0.50;;
53313;SDS011;39202;51.468;7.146;2023-04-24T03:56:12;0.40;;;0.40;;
53313;SDS011;39202;51.468;7.146;2023-04-24T04:01:14;0.40;;;0.40;;
53313;SDS011;39202;51.468;7.146;2023-04-24T04:06:16;0.47;;;0.47;;
53313;SDS011;39202;51.468;7.146;2023-04-24T04:11:19;0.30;;;0.30;;
53313;SDS011;39202;51.468;7.146;2023-04-24T04:16:21;0.45;;;0.45;;
53313;SDS011;39202;51.468;7.146;2023-04-24T04:21:23;0.40;;;0.40;;
53313;SDS011;39202;51.468;7.146;2023-04-24T04:26:26;0.50;;;0.50;;
53313;SDS011;39202;51.468;7.146;2023-04-24T04:31:27;0.40;;;0.40;;
53313;SDS011;39202;51.468;7.146;2023-04-24T04:36:31;0.40;;;0.40;;
53313;SDS011;39202;51.468;7.146;2023-04-24T04:41:38;0.47;;;0.47;;
53313;SDS011;39202;51.468;7.146;2023-04-24T04:46:40;0.32;;;0.32;;
53313;SDS011;39202;51.468;7.146;2023-04-24T04:51:42;0.30;;;0.30;;
53313;SDS011;39202;51.468;7.146;2023-04-24T04:56:46;0.38;;;0.38;;
53313;SDS011;39202;51.468;7.146;2023-04-24T05:01:47;0.40;;;0.40;;
53313;SDS011;39202;51.468;7.146;2023-04-24T05:06:49;0.45;;;0.45;;
53313;SDS011;39202;51.468;7.146;2023-04-24T05:11:53;0.50;;;0.50;;
53313;SDS011;39202;51.468;7.146;2023-04-24T05:16:55;0.50;;;0.50;;
53313;SDS011;39202;51.468;7.146;2023-04-24T05:21:57;0.50;;;0.50;;
53313;SDS011;39202;51.468;7.146;2023-04-24T05:27:00;0.40;;;0.40;;
53313;SDS011;39202;51.468;7.146;2023-04-24T05:32:02;0.50;;;0.50;;
53313;SDS011;39202;51.468;7.146;2023-04-24T05:37:03;0.50;;;0.50;;
53313;SDS011;39202;51.468;7.146;2023-04-24T05:42:09;0.40;;;0.40;;
53313;SDS011;39202;51.468;7.146;2023-04-24T05:47:11;0.40;;;0.40;;
53313;SDS011;39202;51.468;7.146;2023-04-24T05:52:13;0.60;;;0.60;;
53313;SDS011;39202;51.468;7.146;2023-04-24T05:57:16;0.50;;;0.50;;
53313;SDS011;39202;51.468;7.146;2023-04-24T06:02:18;0.50;;;0.50;;
53313;SDS011;39202;51.468;7.146;2023-04-24T06:07:19;0.47;;;0.47;;
53313;SDS011;39202;51.468;7.146;2023-04-24T06:12:23;0.50;;;0.50;;
53313;SDS011;39202;51.468;7.146;2023-04-24T06:17:24;0.50;;;0.50;;
53313;SDS011;39202;51.468;7.146;2023-04-24T06:22:26;0.50;;;0.50;;
53313;SDS011;39202;51.468;7.146;2023-04-24T06:27:30;0.60;;;0.60;;
53313;SDS011;39202;51.468;7.146;2023-04-24T06:32:31;0.40;;;0.40;;
53313;SDS011;39202;51.468;7.146;2023-04-24T06:37:33;0.63;;;0.63;;
53313;SDS011;39202;51.468;7.146;2023-04-24T06:42:36;0.52;;;0.52;;
53313;SDS011;39202;51.468;7.146;2023-04-24T06:47:38;0.52;;;0.52;;
53313;SDS011;39202;51.468;7.146;2023-04-24T06:52:40;0.82;;;0.60;;
53313;SDS011;39202;51.468;7.146;2023-04-24T06:57:43;0.43;;;0.43;;
53313;SDS011;39202;51.468;7.146;2023-04-24T07:02:45;0.60;;;0.60;;
53313;SDS011;39202;51.468;7.146;2023-04-24T07:07:47;0.63;;;0.60;;
53313;SDS011;39202;51.468;7.146;2023-04-24T07:12:51;0.82;;;0.70;;
53313;SDS011;39202;51.468;7.146;2023-04-24T07:17:52;0.63;;;0.63;;
53313;SDS011;39202;51.468;7.146;2023-04-24T07:22:54;1.40;;;0.52;;
53313;SDS011;39202;51.468;7.146;2023-04-24T07:27:57;1.02;;;0.65;;
53313;SDS011;39202;51.468;7.146;2023-04-24T07:32:59;0.77;;;0.70;;
53313;SDS011;39202;51.468;7.146;2023-04-24T07:38:01;0.63;;;0.63;;
53313;SDS011;39202;51.468;7.146;2023-04-24T07:43:04;0.70;;;0.70;;
53313;SDS011;39202;51.468;7.146;2023-04-24T07:48:05;0.80;;;0.80;;
53313;SDS011;39202;51.468;7.146;2023-04-24T07:53:08;0.75;;;0.75;;
53313;SDS011;39202;51.468;7.146;2023-04-24T07:58:12;1.98;;;0.77;;
53313;SDS011;39202;51.468;7.146;2023-04-24T08:03:13;0.90;;;0.70;;
53313;SDS011;39202;51.468;7.146;2023-04-24T08:08:19;0.70;;;0.70;;
53313;SDS011;39202;51.468;7.146;2023-04-24T08:13:23;3.20;;;1.05;;
53313;SDS011;39202;51.468;7.146;2023-04-24T08:18:25;2.13;;;0.70;;
53313;SDS011;39202;51.468;7.146;2023-04-24T08:23:27;1.13;;;0.80;;
53313;SDS011;39202;51.468;7.146;2023-04-24T08:33:33;1.55;;;0.70;;
53313;SDS011;39202;51.468;7.146;2023-04-24T08:38:35;0.65;;;0.65;;
53313;SDS011;39202;51.468;7.146;2023-04-24T08:43:37;1.67;;;0.68;;
53313;SDS011;39202;51.468;7.146;2023-04-24T08:48:42;0.70;;;0.70;;
53313;SDS011;39202;51.468;7.146;2023-04-24T08:53:43;2.25;;;0.95;;
53313;SDS011;39202;51.468;7.146;2023-04-24T08:58:46;0.70;;;0.70;;
53313;SDS011;39202;51.468;7.146;2023-04-24T09:03:50;3.58;;;1.00;;
53313;SDS011;39202;51.468;7.146;2023-04-24T09:08:52;1.90;;;0.80;;
53313;SDS011;39202;51.468;7.146;2023-04-24T09:13:56;0.77;;;0.77;;
53313;SDS011;39202;51.468;7.146;2023-04-24T09:18:59;2.03;;;0.80;;
53313;SDS011;39202;51.468;7.146;2023-04-24T09:24:04;1.05;;;0.77;;
53313;SDS011;39202;51.468;7.146;2023-04-24T09:29:07;1.48;;;0.80;;
53313;SDS011;39202;51.468;7.146;2023-04-24T09:34:10;1.38;;;0.85;;
53313;SDS011;39202;51.468;7.146;2023-04-24T09:39:12;1.40;;;0.90;;
53313;SDS011;39202;51.468;7.146;2023-04-24T09:44:17;4.45;;;1.00;;
53313;SDS011;39202;51.468;7.146;2023-04-24T09:49:23;1.10;;;1.00;;
53313;SDS011;39202;51.468;7.146;2023-04-24T09:54:26;2.22;;;0.70;;
53313;SDS011;39202;51.468;7.146;2023-04-24T09:59:30;2.30;;;0.93;;
53313;SDS011;39202;51.468;7.146;2023-04-24T10:04:33;1.00;;;0.90;;
53313;SDS011;39202;51.468;7.146;2023-04-24T10:09:35;1.25;;;1.05;;
53313;SDS011;39202;51.468;7.146;2023-04-24T10:14:36;1.20;;;0.85;;
53313;SDS011;39202;51.468;7.146;2023-04-24T10:19:40;1.20;;;1.00;;
53313;SDS011;39202;51.468;7.146;2023-04-24T10:24:42;0.90;;;0.90;;
53313;SDS011;39202;51.468;7.146;2023-04-24T10:29:45;0.80;;;0.80;;
53313;SDS011;39202;51.468;7.146;2023-04-24T10:34:50;0.75;;;0.75;;
53313;SDS011;39202;51.468;7.146;2023-04-24T10:39:52;0.80;;;0.77;;
53313;SDS011;39202;51.468;7.146;2023-04-24T10:44:54;1.05;;;0.82;;
53313;SDS011;39202;51.468;7.146;2023-04-24T10:50:00;1.17;;;0.80;;
53313;SDS011;39202;51.468;7.146;2023-04-24T10:55:01;0.70;;;0.70;;
53313;SDS011;39202;51.468;7.146;2023-04-24T11:00:10;0.80;;;0.80;;
53313;SDS011;39202;51.468;7.146;2023-04-24T11:05:18;0.80;;;0.80;;
53313;SDS011;39202;51.468;7.146;2023-04-24T11:10:25;0.80;;;0.80;;
53313;SDS011;39202;51.468;7.146;2023-04-24T11:15:27;0.70;;;0.70;;
53313;SDS011;39202;51.468;7.146;2023-04-24T11:20:30;0.73;;;0.73;;
53313;SDS011;39202;51.468;7.146;2023-04-24T11:25:32;1.80;;;0.90;;
53313;SDS011;39202;51.468;7.146;2023-04-24T11:30:34;1.38;;;0.95;;
53313;SDS011;39202;51.468;7.146;2023-04-24T11:35:39;0.80;;;0.80;;
53313;SDS011;39202;51.468;7.146;2023-04-24T11:40:41;0.95;;;0.93;;
53313;SDS011;39202;51.468;7.146;2023-04-24T11:45:47;0.80;;;0.80;;
53313;SDS011;39202;51.468;7.146;2023-04-24T11:50:51;0.70;;;0.70;;
53313;SDS011;39202;51.468;7.146;2023-04-24T11:55:52;1.17;;;1.08;;
53313;SDS011;39202;51.468;7.146;2023-04-24T12:00:57;0.70;;;0.70;;
53313;SDS011;39202;51.468;7.146;2023-04-24T12:06:07;1.60;;;0.80;;
53313;SDS011;39202;51.468;7.146;2023-04-24T12:11:09;0.98;;;0.80;;
53313;SDS011;39202;51.468;7.146;2023-04-24T12:16:12;2.22;;;1.05;;
53313;SDS011;39202;51.468;7.146;2023-04-24T12:21:16;1.20;;;1.10;;
53313;SDS011;39202;51.468;7.146;2023-04-24T12:26:19;0.73;;;0.73;;
53313;SDS011;39202;51.468;7.146;2023-04-24T12:31:22;1.00;;;0.90;;
53313;SDS011;39202;51.468;7.146;2023-04-24T12:36:25;0.70;;;0.70;;
53313;SDS011;39202;51.468;7.146;2023-04-24T12:41:27;0.80;;;0.80;;
53313;SDS011;39202;51.468;7.146;2023-04-24T12:46:32;1.23;;;0.70;;
53313;SDS011;39202;51.468;7.146;2023-04-24T12:51:35;1.67;;;0.73;;
53313;SDS011;39202;51.468;7.146;2023-04-24T12:56:36;1.33;;;0.70;;
53313;SDS011;39202;51.468;7.146;2023-04-24T13:01:40;0.80;;;0.80;;
53313;SDS011;39202;51.468;7.146;2023-04-24T13:06:43;1.55;;;0.90;;
53313;SDS011;39202;51.468;7.146;2023-04-24T13:11:45;1.98;;;0.77;;
53313;SDS011;39202;51.468;7.146;2023-04-24T13:16:47;0.95;;;0.95;;
53313;SDS011;39202;51.468;7.146;2023-04-24T13:21:50;1.95;;;0.80;;
53313;SDS011;39202;51.468;7.146;2023-04-24T13:26:52;1.90;;;1.00;;
53313;SDS011;39202;51.468;7.146;2023-04-24T13:31:54;1.00;;;1.00;;
53313;SDS011;39202;51.468;7.146;2023-04-24T13:36:58;1.98;;;1.00;;
53313;SDS011;39202;51.468;7.146;2023-04-24T13:41:59;0.73;;;0.73;;
53313;SDS011;39202;51.468;7.146;2023-04-24T13:47:01;1.90;;;0.88;;
53313;SDS011;39202;51.468;7.146;2023-04-24T13:52:04;1.48;;;0.80;;
53313;SDS011;39202;51.468;7.146;2023-04-24T13:57:07;0.80;;;0.80;;
53313;SDS011;39202;51.468;7.146;2023-04-24T14:02:09;1.17;;;0.82;;
53313;SDS011;39202;51.468;7.146;2023-04-24T14:07:12;1.15;;;0.82;;
53313;SDS011;39202;51.468;7.146;2023-04-24T14:12:13;2.22;;;0.90;;
53313;SDS011;39202;51.468;7.146;2023-04-24T14:17:16;0.85;;;0.80;;
53313;SDS011;39202;51.468;7.146;2023-04-24T14:22:20;0.70;;;0.70;;
53313;SDS011;39202;51.468;7.146;2023-04-24T14:27:21;1.42;;;1.00;;
53313;SDS011;39202;51.468;7.146;2023-04-24T14:32:23;1.30;;;0.98;;
53313;SDS011;39202;51.468;7.146;2023-04-24T14:37:26;0.90;;;0.90;;
53313;SDS011;39202;51.468;7.146;2023-04-24T14:42:28;0.88;;;0.88;;
53313;SDS011;39202;51.468;7.146;2023-04-24T14:47:30;0.85;;;0.77;;
53313;SDS011;39202;51.468;7.146;2023-04-24T14:52:33;1.50;;;0.90;;
53313;SDS011;39202;51.468;7.146;2023-04-24T14:57:34;1.75;;;0.85;;
53313;SDS011;39202;51.468;7.146;2023-04-24T15:02:37;0.73;;;0.73;;
53313;SDS011;39202;51.468;7.146;2023-04-24T15:07:43;0.90;;;0.90;;
53313;SDS011;39202;51.468;7.146;2023-04-24T15:12:45;0.73;;;0.73;;
53313;SDS011;39202;51.468;7.146;2023-04-24T15:17:47;0.60;;;0.60;;
53313;SDS011;39202;51.468;7.146;2023-04-24T15:22:50;1.05;;;0.95;;
53313;SDS011;39202;51.468;7.146;2023-04-24T15:27:51;0.90;;;0.90;;
53313;SDS011;39202;51.468;7.146;2023-04-24T15:32:53;0.70;;;0.70;;
53313;SDS011;39202;51.468;7.146;2023-04-24T15:37:56;0.73;;;0.73;;
53313;SDS011;39202;51.468;7.146;2023-04-24T15:42:58;0.75;;;0.75;;
53313;SDS011;39202;51.468;7.146;2023-04-24T15:48:00;0.80;;;0.80;;
53313;SDS011;39202;51.468;7.146;2023-04-24T15:53:03;0.70;;;0.70;;
53313;SDS011;39202;51.468;7.146;2023-04-24T15:58:05;0.93;;;0.77;;
53313;SDS011;39202;51.468;7.146;2023-04-24T16:03:07;0.70;;;0.70;;
53313;SDS011;39202;51.468;7.146;2023-04-24T16:08:10;0.70;;;0.70;;
53313;SDS011;39202;51.468;7.146;2023-04-24T16:13:13;0.75;;;0.75;;
53313;SDS011;39202;51.468;7.146;2023-04-24T16:18:17;0.70;;;0.70;;
53313;SDS011;39202;51.468;7.146;2023-04-24T16:23:20;0.73;;;0.73;;
53313;SDS011;39202;51.468;7.146;2023-04-24T16:28:22;0.68;;;0.63;;
53313;SDS011;39202;51.468;7.146;2023-04-24T16:33:23;0.60;;;0.60;;
53313;SDS011;39202;51.468;7.146;2023-04-24T16:38:26;0.60;;;0.60;;
53313;SDS011;39202;51.468;7.146;2023-04-24T16:43:28;1.05;;;1.05;;
53313;SDS011;39202;51.468;7.146;2023-04-24T16:48:31;0.80;;;0.80;;
53313;SDS011;39202;51.468;7.146;2023-04-24T16:53:34;0.60;;;0.60;;
53313;SDS011;39202;51.468;7.146;2023-04-24T16:58:36;0.60;;;0.60;;
53313;SDS011;39202;51.468;7.146;2023-04-24T17:03:38;0.60;;;0.60;;
53313;SDS011;39202;51.468;7.146;2023-04-24T17:08:41;0.70;;;0.70;;
53313;SDS011;39202;51.468;7.146;2023-04-24T17:13:43;0.70;;;0.70;;
53313;SDS011;39202;51.468;7.146;2023-04-24T17:18:45;0.60;;;0.60;;
53313;SDS011;39202;51.468;7.146;2023-04-24T17:23:48;0.60;;;0.60;;
53313;SDS011;39202;51.468;7.146;2023-04-24T17:28:49;0.70;;;0.70;;
53313;SDS011;39202;51.468;7.146;2023-04-24T17:33:53;0.45;;;0.45;;
53313;SDS011;39202;51.468;7.146;2023-04-24T17:38:56;0.77;;;0.77;;
53313;SDS011;39202;51.468;7.146;2023-04-24T17:43:58;0.70;;;0.70;;
53313;SDS011;39202;51.468;7.146;2023-04-24T17:48:59;0.63;;;0.63;;
53313;SDS011;39202;51.468;7.146;2023-04-24T17:54:02;0.70;;;0.70;;
53313;SDS011;39202;51.468;7.146;2023-04-24T17:59:04;0.80;;;0.80;;
53313;SDS011;39202;51.468;7.146;2023-04-24T18:04:06;0.65;;;0.63;;
53313;SDS011;39202;51.468;7.146;2023-04-24T18:09:09;0.55;;;0.55;;
53313;SDS011;39202;51.468;7.146;2023-04-24T18:14:12;0.60;;;0.60;;
53313;SDS011;39202;51.468;7.146;2023-04-24T18:19:13;0.57;;;0.57;;
53313;SDS011;39202;51.468;7.146;2023-04-24T18:24:16;0.60;;;0.60;;
53313;SDS011;39202;51.468;7.146;2023-04-24T18:29:21;0.60;;;0.60;;
53313;SDS011;39202;51.468;7.146;2023-04-24T18:34:23;0.60;;;0.60;;
53313;SDS011;39202;51.468;7.146;2023-04-24T18:39:26;0.98;;;0.90;;
53313;SDS011;39202;51.468;7.146;2023-04-24T18:44:28;0.60;;;0.60;;
53313;SDS011;39202;51.468;7.146;2023-04-24T18:49:29;0.65;;;0.60;;
53313;SDS011;39202;51.468;7.146;2023-04-24T18:54:32;0.70;;;0.70;;
53313;SDS011;39202;51.468;7.146;2023-04-24T18:59:34;0.60;;;0.60;;
53313;SDS011;39202;51.468;7.146;2023-04-24T19:04:36;0.50;;;0.50;;
53313;SDS011;39202;51.468;7.146;2023-04-24T19:09:39;0.68;;;0.68;;
53313;SDS011;39202;51.468;7.146;2023-04-24T19:14:41;0.90;;;0.90;;
53313;SDS011;39202;51.468;7.146;2023-04-24T19:19:42;0.70;;;0.70;;
53313;SDS011;39202;51.468;7.146;2023-04-24T19:24:46;0.60;;;0.60;;
53313;SDS011;39202;51.468;7.146;2023-04-24T19:29:47;0.60;;;0.60;;
53313;SDS011;39202;51.468;7.146;2023-04-24T19:34:51;0.70;;;0.70;;
53313;SDS011;39202;51.468;7.146;2023-04-24T19:39:54;0.50;;;0.50;;
53313;SDS011;39202;51.468;7.146;2023-04-24T19:44:55;0.60;;;0.60;;
53313;SDS011;39202;51.468;7.146;2023-04-24T19:49:57;0.70;;;0.70;;
53313;SDS011;39202;51.468;7.146;2023-04-24T19:55:00;0.55;;;0.55;;
53313;SDS011;39202;51.468;7.146;2023-04-24T20:00:02;0.65;;;0.65;;
53313;SDS011;39202;51.468;7.146;2023-04-24T20:05:05;0.60;;;0.60;;
53313;SDS011;39202;51.468;7.146;2023-04-24T20:10:09;0.50;;;0.50;;
53313;SDS011;39202;51.468;7.146;2023-04-24T20:15:11;0.60;;;0.60;;
53313;SDS011;39202;51.468;7.146;2023-04-24T20:20:12;0.60;;;0.60;;
53313;SDS011;39202;51.468;7.146;2023-04-24T20:25:15;0.70;;;0.70;;
53313;SDS011;39202;51.468;7.146;2023-04-24T20:30:17;0.60;;;0.60;;
53313;SDS011;39202;51.468;7.146;2023-04-24T20:35:19;0.60;;;0.60;;
53313;SDS011;39202;51.468;7.146;2023-04-24T20:40:22;0.70;;;0.70;;
53313;SDS011;39202;51.468;7.146;2023-04-24T20:45:24;0.50;;;0.50;;
53313;SDS011;39202;51.468;7.146;2023-04-24T20:50:25;0.60;;;0.60;;
53313;SDS011;39202;51.468;7.146;2023-04-24T20:55:28;0.50;;;0.50;;
53313;SDS011;39202;51.468;7.146;2023-04-24T21:00:30;0.50;;;0.50;;
53313;SDS011;39202;51.468;7.146;2023-04-24T21:05:32;0.60;;;0.60;;
53313;SDS011;39202;51.468;7.146;2023-04-24T21:10:35;0.50;;;0.50;;
53313;SDS011;39202;51.468;7.146;2023-04-24T21:15:37;0.50;;;0.50;;
53313;SDS011;39202;51.468;7.146;2023-04-24T21:20:38;0.50;;;0.50;;
53313;SDS011;39202;51.468;7.146;2023-04-24T21:25:41;0.60;;;0.60;;
53313;SDS011;39202;51.468;7.146;2023-04-24T21:30:43;0.60;;;0.60;;
53313;SDS011;39202;51.468;7.146;2023-04-24T21:35:45;0.60;;;0.60;;
53313;SDS011;39202;51.468;7.146;2023-04-24T21:40:48;0.60;;;0.60;;
53313;SDS011;39202;51.468;7.146;2023-04-24T21:45:50;0.65;;;0.65;;
53313;SDS011;39202;51.468;7.146;2023-04-24T21:50:52;0.50;;;0.50;;
53313;SDS011;39202;51.468;7.146;2023-04-24T21:55:55;0.60;;;0.60;;
53313;SDS011;39202;51.468;7.146;2023-04-24T22:00:57;0.60;;;0.60;;
53313;SDS011;39202;51.468;7.146;2023-04-24T22:05:59;0.50;;;0.50;;
53313;SDS011;39202;51.468;7.146;2023-04-24T22:11:02;0.63;;;0.63;;
53313;SDS011;39202;51.468;7.146;2023-04-24T22:16:04;0.60;;;0.60;;
53313;SDS011;39202;51.468;7.146;2023-04-24T22:21:06;0.60;;;0.60;;
53313;SDS011;39202;51.468;7.146;2023-04-24T22:26:09;0.60;;;0.60;;
53313;SDS011;39202;51.468;7.146;2023-04-24T22:31:11;0.68;;;0.68;;
53313;SDS011;39202;51.468;7.146;2023-04-24T22:36:12;0.47;;;0.47;;
53313;SDS011;39202;51.468;7.146;2023-04-24T22:41:16;0.70;;;0.70;;
53313;SDS011;39202;51.468;7.146;2023-04-24T22:46:18;0.60;;;0.60;;
53313;SDS011;39202;51.468;7.146;2023-04-24T22:51:19;0.50;;;0.50;;
53313;SDS011;39202;51.468;7.146;2023-04-24T22:56:23;0.50;;;0.50;;
53313;SDS011;39202;51.468;7.146;2023-04-24T23:01:25;0.80;;;0.80;;
53313;SDS011;39202;51.468;7.146;2023-04-24T23:06:27;0.60;;;0.60;;
53313;SDS011;39202;51.468;7.146;2023-04-24T23:11:30;0.68;;;0.68;;
53313;SDS011;39202;51.468;7.146;2023-04-24T23:16:32;0.68;;;0.68;;
53313;SDS011;39202;51.468;7.146;2023-04-24T23:21:36;0.75;;;0.75;;
53313;SDS011;39202;51.468;7.146;2023-04-24T23:26:39;0.65;;;0.65;;
53313;SDS011;39202;51.468;7.146;2023-04-24T23:31:41;0.60;;;0.60;;
53313;SDS011;39202;51.468;7.146;2023-04-24T23:36:42;0.80;;;0.80;;
53313;SDS011;39202;51.468;7.146;2023-04-24T23:41:46;0.70;;;0.70;;
53313;SDS011;39202;51.468;7.146;2023-04-24T23:46:48;0.70;;;0.70;;
53313;SDS011;39202;51.468;7.146;2023-04-24T23:51:50;0.70;;;0.70;;
53313;SDS011;39202;51.468;7.146;2023-04-24T23:56:53;0.68;;;0.68;;
